sensor_id;sensor_type;location;lat;lon;timestamp;P1;durP1;ratioP1;P2;durP2;ratioP2
27744;SDS011;61387;48.112;8.616;2024-03-02T00:01:14;22.47;;;12.57;;
27744;SDS011;61387;48.112;8.616;2024-03-02T00:03:40;24.40;;;12.43;;
27744;SDS011;61387;48.112;8.616;2024-03-02T00:06:08;22.93;;;11.40;;
27744;SDS011;61387;48.112;8.616;2024-03-02T00:08:34;18.73;;;10.80;;
27744;SDS011;61387;48.112;8.616;2024-03-02T00:11:00;20.85;;;11.75;;
27744;SDS011;61387;48.112;8.616;2024-03-02T00:13:27;19.80;;;11.07;;
27744;SDS011;61387;48.112;8.616;2024-03-02T00:15:56;21.60;;;11.80;;
27744;SDS011;61387;48.112;8.616;2024-03-02T00:18:32;21.50;;;12.17;;
27744;SDS011;61387;48.112;8.616;2024-03-02T00:20:59;21.30;;;12.53;;
27744;SDS011;61387;48.112;8.616;2024-03-02T00:23:31;20.67;;;12.37;;
27744;SDS011;61387;48.112;8.616;2024-03-02T00:25:58;22.07;;;13.13;;
27744;SDS011;61387;48.112;8.616;2024-03-02T00:28:29;25.20;;;13.77;;
27744;SDS011;61387;48.112;8.616;2024-03-02T00:33:38;21.57;;;12.40;;
27744;SDS011;61387;48.112;8.616;2024-03-02T00:36:12;24.40;;;13.63;;
27744;SDS011;61387;48.112;8.616;2024-03-02T00:38:46;26.50;;;14.73;;
27744;SDS011;61387;48.112;8.616;2024-03-02T00:41:32;24.70;;;13.67;;
27744;SDS011;61387;48.112;8.616;2024-03-02T00:43:58;22.13;;;12.57;;
27744;SDS011;61387;48.112;8.616;2024-03-02T00:49:01;20.93;;;11.67;;
27744;SDS011;61387;48.112;8.616;2024-03-02T00:51:32;20.60;;;12.10;;
27744;SDS011;61387;48.112;8.616;2024-03-02T00:54:00;18.57;;;10.70;;
27744;SDS011;61387;48.112;8.616;2024-03-02T00:56:29;20.00;;;11.67;;
27744;SDS011;61387;48.112;8.616;2024-03-02T00:58:55;17.37;;;10.67;;
27744;SDS011;61387;48.112;8.616;2024-03-02T01:01:21;22.87;;;11.17;;
27744;SDS011;61387;48.112;8.616;2024-03-02T01:03:47;21.13;;;11.53;;
27744;SDS011;61387;48.112;8.616;2024-03-02T01:06:17;25.73;;;13.80;;
27744;SDS011;61387;48.112;8.616;2024-03-02T01:08:43;25.73;;;14.27;;
27744;SDS011;61387;48.112;8.616;2024-03-02T01:11:09;28.93;;;15.37;;
27744;SDS011;61387;48.112;8.616;2024-03-02T01:13:35;25.53;;;14.97;;
27744;SDS011;61387;48.112;8.616;2024-03-02T01:16:01;23.47;;;13.13;;
27744;SDS011;61387;48.112;8.616;2024-03-02T01:18:27;20.77;;;12.17;;
27744;SDS011;61387;48.112;8.616;2024-03-02T01:20:53;23.90;;;14.07;;
27744;SDS011;61387;48.112;8.616;2024-03-02T01:23:22;25.70;;;14.70;;
27744;SDS011;61387;48.112;8.616;2024-03-02T01:25:49;30.83;;;15.67;;
27744;SDS011;61387;48.112;8.616;2024-03-02T01:28:15;29.73;;;16.17;;
27744;SDS011;61387;48.112;8.616;2024-03-02T01:30:41;30.23;;;16.27;;
27744;SDS011;61387;48.112;8.616;2024-03-02T01:33:07;26.87;;;14.07;;
27744;SDS011;61387;48.112;8.616;2024-03-02T01:35:33;27.63;;;15.77;;
27744;SDS011;61387;48.112;8.616;2024-03-02T01:38:02;26.30;;;13.37;;
27744;SDS011;61387;48.112;8.616;2024-03-02T01:40:28;27.33;;;14.20;;
27744;SDS011;61387;48.112;8.616;2024-03-02T01:42:54;28.30;;;14.83;;
27744;SDS011;61387;48.112;8.616;2024-03-02T01:45:22;30.67;;;16.00;;
27744;SDS011;61387;48.112;8.616;2024-03-02T01:47:48;34.80;;;17.40;;
27744;SDS011;61387;48.112;8.616;2024-03-02T01:50:14;35.97;;;17.93;;
27744;SDS011;61387;48.112;8.616;2024-03-02T01:52:40;32.10;;;16.57;;
27744;SDS011;61387;48.112;8.616;2024-03-02T01:55:07;33.70;;;16.63;;
27744;SDS011;61387;48.112;8.616;2024-03-02T01:57:33;32.87;;;16.17;;
27744;SDS011;61387;48.112;8.616;2024-03-02T01:59:59;32.73;;;17.17;;
27744;SDS011;61387;48.112;8.616;2024-03-02T02:02:25;36.03;;;18.23;;
27744;SDS011;61387;48.112;8.616;2024-03-02T02:04:51;36.30;;;17.47;;
27744;SDS011;61387;48.112;8.616;2024-03-02T02:07:17;33.53;;;17.20;;
27744;SDS011;61387;48.112;8.616;2024-03-02T02:09:43;30.00;;;15.87;;
27744;SDS011;61387;48.112;8.616;2024-03-02T02:12:09;31.83;;;15.37;;
27744;SDS011;61387;48.112;8.616;2024-03-02T02:14:35;30.60;;;16.23;;
27744;SDS011;61387;48.112;8.616;2024-03-02T02:17:01;35.43;;;16.93;;
27744;SDS011;61387;48.112;8.616;2024-03-02T02:19:27;35.03;;;16.43;;
27744;SDS011;61387;48.112;8.616;2024-03-02T02:21:53;33.40;;;17.37;;
27744;SDS011;61387;48.112;8.616;2024-03-02T02:24:19;33.07;;;17.10;;
27744;SDS011;61387;48.112;8.616;2024-03-02T02:26:45;35.80;;;18.03;;
27744;SDS011;61387;48.112;8.616;2024-03-02T02:29:11;29.13;;;15.37;;
27744;SDS011;61387;48.112;8.616;2024-03-02T02:31:40;32.70;;;15.57;;
27744;SDS011;61387;48.112;8.616;2024-03-02T02:34:06;31.10;;;16.13;;
27744;SDS011;61387;48.112;8.616;2024-03-02T02:36:34;30.30;;;16.27;;
27744;SDS011;61387;48.112;8.616;2024-03-02T02:39:05;33.03;;;16.43;;
27744;SDS011;61387;48.112;8.616;2024-03-02T02:41:34;33.30;;;16.43;;
27744;SDS011;61387;48.112;8.616;2024-03-02T02:44:00;33.23;;;16.93;;
27744;SDS011;61387;48.112;8.616;2024-03-02T02:46:25;34.87;;;17.80;;
27744;SDS011;61387;48.112;8.616;2024-03-02T02:48:51;33.60;;;17.23;;
27744;SDS011;61387;48.112;8.616;2024-03-02T02:51:18;36.27;;;16.80;;
27744;SDS011;61387;48.112;8.616;2024-03-02T02:53:44;35.07;;;16.70;;
27744;SDS011;61387;48.112;8.616;2024-03-02T02:56:10;34.73;;;17.47;;
27744;SDS011;61387;48.112;8.616;2024-03-02T02:58:35;35.13;;;17.70;;
27744;SDS011;61387;48.112;8.616;2024-03-02T03:01:01;39.03;;;19.17;;
27744;SDS011;61387;48.112;8.616;2024-03-02T03:03:27;37.77;;;18.07;;
27744;SDS011;61387;48.112;8.616;2024-03-02T03:05:53;36.73;;;18.47;;
27744;SDS011;61387;48.112;8.616;2024-03-02T03:08:19;36.53;;;17.20;;
27744;SDS011;61387;48.112;8.616;2024-03-02T03:10:45;33.80;;;16.57;;
27744;SDS011;61387;48.112;8.616;2024-03-02T03:13:11;32.63;;;16.67;;
27744;SDS011;61387;48.112;8.616;2024-03-02T03:15:36;34.40;;;17.40;;
27744;SDS011;61387;48.112;8.616;2024-03-02T03:18:03;30.97;;;16.47;;
27744;SDS011;61387;48.112;8.616;2024-03-02T03:20:29;33.97;;;17.23;;
27744;SDS011;61387;48.112;8.616;2024-03-02T03:22:55;38.07;;;18.27;;
27744;SDS011;61387;48.112;8.616;2024-03-02T03:25:21;33.77;;;15.73;;
27744;SDS011;61387;48.112;8.616;2024-03-02T03:27:47;37.47;;;18.50;;
27744;SDS011;61387;48.112;8.616;2024-03-02T03:30:13;37.90;;;16.93;;
27744;SDS011;61387;48.112;8.616;2024-03-02T03:32:39;33.20;;;17.37;;
27744;SDS011;61387;48.112;8.616;2024-03-02T03:35:05;30.77;;;15.57;;
27744;SDS011;61387;48.112;8.616;2024-03-02T03:37:31;27.60;;;14.80;;
27744;SDS011;61387;48.112;8.616;2024-03-02T03:39:58;29.60;;;15.07;;
27744;SDS011;61387;48.112;8.616;2024-03-02T03:42:24;30.27;;;14.93;;
27744;SDS011;61387;48.112;8.616;2024-03-02T03:44:51;29.17;;;15.47;;
27744;SDS011;61387;48.112;8.616;2024-03-02T03:47:17;29.10;;;15.13;;
27744;SDS011;61387;48.112;8.616;2024-03-02T03:49:42;27.60;;;15.07;;
27744;SDS011;61387;48.112;8.616;2024-03-02T03:52:09;28.20;;;15.30;;
27744;SDS011;61387;48.112;8.616;2024-03-02T03:54:35;28.53;;;14.77;;
27744;SDS011;61387;48.112;8.616;2024-03-02T03:57:02;31.37;;;14.83;;
27744;SDS011;61387;48.112;8.616;2024-03-02T03:59:28;29.20;;;14.43;;
27744;SDS011;61387;48.112;8.616;2024-03-02T04:01:54;28.67;;;14.47;;
27744;SDS011;61387;48.112;8.616;2024-03-02T04:04:20;26.07;;;13.40;;
27744;SDS011;61387;48.112;8.616;2024-03-02T04:06:46;27.50;;;13.90;;
27744;SDS011;61387;48.112;8.616;2024-03-02T04:09:12;24.03;;;12.53;;
27744;SDS011;61387;48.112;8.616;2024-03-02T04:11:38;25.87;;;13.20;;
27744;SDS011;61387;48.112;8.616;2024-03-02T04:14:04;24.90;;;13.10;;
27744;SDS011;61387;48.112;8.616;2024-03-02T04:16:31;22.03;;;11.87;;
27744;SDS011;61387;48.112;8.616;2024-03-02T04:18:57;24.90;;;13.47;;
27744;SDS011;61387;48.112;8.616;2024-03-02T04:21:23;32.03;;;14.70;;
27744;SDS011;61387;48.112;8.616;2024-03-02T04:23:49;32.60;;;14.77;;
27744;SDS011;61387;48.112;8.616;2024-03-02T04:26:15;40.63;;;18.50;;
27744;SDS011;61387;48.112;8.616;2024-03-02T04:28:44;37.77;;;17.07;;
27744;SDS011;61387;48.112;8.616;2024-03-02T04:31:10;39.93;;;18.27;;
27744;SDS011;61387;48.112;8.616;2024-03-02T04:33:36;39.20;;;17.70;;
27744;SDS011;61387;48.112;8.616;2024-03-02T04:36:02;42.90;;;18.83;;
27744;SDS011;61387;48.112;8.616;2024-03-02T04:38:27;35.93;;;17.20;;
27744;SDS011;61387;48.112;8.616;2024-03-02T04:40:53;34.40;;;16.67;;
27744;SDS011;61387;48.112;8.616;2024-03-02T04:43:19;37.20;;;16.53;;
27744;SDS011;61387;48.112;8.616;2024-03-02T04:45:45;32.07;;;15.73;;
27744;SDS011;61387;48.112;8.616;2024-03-02T04:48:11;37.80;;;18.25;;
27744;SDS011;61387;48.112;8.616;2024-03-02T04:50:38;33.83;;;16.77;;
27744;SDS011;61387;48.112;8.616;2024-03-02T04:53:03;35.63;;;16.95;;
27744;SDS011;61387;48.112;8.616;2024-03-02T04:55:29;38.63;;;17.13;;
27744;SDS011;61387;48.112;8.616;2024-03-02T04:58:04;34.77;;;17.00;;
27744;SDS011;61387;48.112;8.616;2024-03-02T05:00:30;31.83;;;16.87;;
27744;SDS011;61387;48.112;8.616;2024-03-02T05:02:56;35.77;;;16.70;;
27744;SDS011;61387;48.112;8.616;2024-03-02T05:05:21;37.70;;;17.83;;
27744;SDS011;61387;48.112;8.616;2024-03-02T05:07:47;33.00;;;15.70;;
27744;SDS011;61387;48.112;8.616;2024-03-02T05:10:13;30.33;;;15.77;;
27744;SDS011;61387;48.112;8.616;2024-03-02T05:12:39;27.63;;;14.90;;
27744;SDS011;61387;48.112;8.616;2024-03-02T05:15:08;23.53;;;12.93;;
27744;SDS011;61387;48.112;8.616;2024-03-02T05:17:35;26.50;;;13.77;;
27744;SDS011;61387;48.112;8.616;2024-03-02T05:20:01;26.20;;;14.20;;
27744;SDS011;61387;48.112;8.616;2024-03-02T05:22:27;23.87;;;12.77;;
27744;SDS011;61387;48.112;8.616;2024-03-02T05:24:52;21.53;;;12.57;;
27744;SDS011;61387;48.112;8.616;2024-03-02T05:27:18;24.40;;;13.10;;
27744;SDS011;61387;48.112;8.616;2024-03-02T05:29:44;26.20;;;13.17;;
27744;SDS011;61387;48.112;8.616;2024-03-02T05:32:10;23.53;;;13.13;;
27744;SDS011;61387;48.112;8.616;2024-03-02T05:34:36;25.93;;;12.90;;
27744;SDS011;61387;48.112;8.616;2024-03-02T05:37:02;22.10;;;12.33;;
27744;SDS011;61387;48.112;8.616;2024-03-02T05:39:28;26.20;;;13.40;;
27744;SDS011;61387;48.112;8.616;2024-03-02T05:41:54;23.00;;;12.13;;
27744;SDS011;61387;48.112;8.616;2024-03-02T05:44:19;23.67;;;12.23;;
27744;SDS011;61387;48.112;8.616;2024-03-02T05:46:45;29.10;;;14.60;;
27744;SDS011;61387;48.112;8.616;2024-03-02T05:49:11;40.50;;;17.10;;
27744;SDS011;61387;48.112;8.616;2024-03-02T05:51:37;39.33;;;18.13;;
27744;SDS011;61387;48.112;8.616;2024-03-02T05:54:03;41.07;;;18.67;;
27744;SDS011;61387;48.112;8.616;2024-03-02T05:56:28;40.33;;;17.43;;
27744;SDS011;61387;48.112;8.616;2024-03-02T05:58:54;39.40;;;18.23;;
27744;SDS011;61387;48.112;8.616;2024-03-02T06:01:33;37.87;;;18.03;;
27744;SDS011;61387;48.112;8.616;2024-03-02T06:03:59;31.23;;;16.17;;
27744;SDS011;61387;48.112;8.616;2024-03-02T06:06:25;33.00;;;16.23;;
27744;SDS011;61387;48.112;8.616;2024-03-02T06:11:22;35.07;;;16.70;;
27744;SDS011;61387;48.112;8.616;2024-03-02T06:13:48;33.20;;;16.17;;
27744;SDS011;61387;48.112;8.616;2024-03-02T06:16:14;30.13;;;15.30;;
27744;SDS011;61387;48.112;8.616;2024-03-02T06:18:39;35.07;;;17.10;;
27744;SDS011;61387;48.112;8.616;2024-03-02T06:21:05;35.20;;;16.97;;
27744;SDS011;61387;48.112;8.616;2024-03-02T06:23:31;40.43;;;17.87;;
27744;SDS011;61387;48.112;8.616;2024-03-02T06:25:57;165.90;;;77.53;;
27744;SDS011;61387;48.112;8.616;2024-03-02T06:28:23;41.77;;;21.53;;
27744;SDS011;61387;48.112;8.616;2024-03-02T06:30:49;35.90;;;17.90;;
27744;SDS011;61387;48.112;8.616;2024-03-02T06:33:15;38.07;;;17.63;;
27744;SDS011;61387;48.112;8.616;2024-03-02T06:35:41;38.90;;;18.47;;
27744;SDS011;61387;48.112;8.616;2024-03-02T06:38:07;38.17;;;18.87;;
27744;SDS011;61387;48.112;8.616;2024-03-02T06:40:33;35.20;;;17.80;;
27744;SDS011;61387;48.112;8.616;2024-03-02T06:42:59;32.80;;;16.60;;
27744;SDS011;61387;48.112;8.616;2024-03-02T06:45:25;31.57;;;15.60;;
27744;SDS011;61387;48.112;8.616;2024-03-02T06:47:51;30.33;;;14.63;;
27744;SDS011;61387;48.112;8.616;2024-03-02T06:50:17;31.13;;;14.70;;
27744;SDS011;61387;48.112;8.616;2024-03-02T06:52:43;31.53;;;14.80;;
27744;SDS011;61387;48.112;8.616;2024-03-02T06:55:09;26.80;;;13.93;;
27744;SDS011;61387;48.112;8.616;2024-03-02T06:57:35;32.13;;;16.97;;
27744;SDS011;61387;48.112;8.616;2024-03-02T07:00:01;29.93;;;15.73;;
27744;SDS011;61387;48.112;8.616;2024-03-02T07:02:30;36.20;;;17.07;;
27744;SDS011;61387;48.112;8.616;2024-03-02T07:04:55;40.17;;;20.17;;
27744;SDS011;61387;48.112;8.616;2024-03-02T07:07:21;48.93;;;22.53;;
27744;SDS011;61387;48.112;8.616;2024-03-02T07:09:47;30.20;;;16.03;;
27744;SDS011;61387;48.112;8.616;2024-03-02T07:12:14;31.73;;;16.33;;
27744;SDS011;61387;48.112;8.616;2024-03-02T07:14:40;28.30;;;14.50;;
27744;SDS011;61387;48.112;8.616;2024-03-02T07:17:25;31.33;;;15.10;;
27744;SDS011;61387;48.112;8.616;2024-03-02T07:19:50;35.43;;;16.33;;
27744;SDS011;61387;48.112;8.616;2024-03-02T07:22:16;31.67;;;15.63;;
27744;SDS011;61387;48.112;8.616;2024-03-02T07:24:42;29.33;;;14.93;;
27744;SDS011;61387;48.112;8.616;2024-03-02T07:27:08;26.20;;;13.50;;
27744;SDS011;61387;48.112;8.616;2024-03-02T07:29:34;27.00;;;13.17;;
27744;SDS011;61387;48.112;8.616;2024-03-02T07:32:00;26.27;;;13.83;;
27744;SDS011;61387;48.112;8.616;2024-03-02T07:34:26;24.80;;;12.85;;
27744;SDS011;61387;48.112;8.616;2024-03-02T07:36:52;24.33;;;13.03;;
27744;SDS011;61387;48.112;8.616;2024-03-02T07:39:18;22.93;;;12.37;;
27744;SDS011;61387;48.112;8.616;2024-03-02T07:41:44;22.17;;;12.53;;
27744;SDS011;61387;48.112;8.616;2024-03-02T07:44:10;26.13;;;14.03;;
27744;SDS011;61387;48.112;8.616;2024-03-02T07:46:39;27.57;;;13.77;;
27744;SDS011;61387;48.112;8.616;2024-03-02T07:49:06;24.00;;;13.70;;
27744;SDS011;61387;48.112;8.616;2024-03-02T07:51:32;26.03;;;13.53;;
27744;SDS011;61387;48.112;8.616;2024-03-02T07:53:57;25.00;;;14.53;;
27744;SDS011;61387;48.112;8.616;2024-03-02T07:56:23;24.27;;;14.37;;
27744;SDS011;61387;48.112;8.616;2024-03-02T07:58:48;20.77;;;11.93;;
27744;SDS011;61387;48.112;8.616;2024-03-02T08:01:18;19.77;;;11.37;;
27744;SDS011;61387;48.112;8.616;2024-03-02T08:03:44;22.60;;;12.87;;
27744;SDS011;61387;48.112;8.616;2024-03-02T08:06:15;20.93;;;12.70;;
27744;SDS011;61387;48.112;8.616;2024-03-02T08:08:41;19.73;;;12.07;;
27744;SDS011;61387;48.112;8.616;2024-03-02T08:11:06;16.23;;;9.87;;
27744;SDS011;61387;48.112;8.616;2024-03-02T08:13:37;17.57;;;10.57;;
27744;SDS011;61387;48.112;8.616;2024-03-02T08:16:03;17.53;;;10.40;;
27744;SDS011;61387;48.112;8.616;2024-03-02T08:18:31;17.20;;;11.10;;
27744;SDS011;61387;48.112;8.616;2024-03-02T08:20:57;15.50;;;9.60;;
27744;SDS011;61387;48.112;8.616;2024-03-02T08:23:23;16.70;;;9.23;;
27744;SDS011;61387;48.112;8.616;2024-03-02T08:25:49;14.67;;;8.60;;
27744;SDS011;61387;48.112;8.616;2024-03-02T08:28:15;14.33;;;9.07;;
27744;SDS011;61387;48.112;8.616;2024-03-02T08:30:42;12.53;;;8.13;;
27744;SDS011;61387;48.112;8.616;2024-03-02T08:33:07;12.30;;;7.77;;
27744;SDS011;61387;48.112;8.616;2024-03-02T08:35:33;11.87;;;7.17;;
27744;SDS011;61387;48.112;8.616;2024-03-02T08:38:01;10.33;;;6.77;;
27744;SDS011;61387;48.112;8.616;2024-03-02T08:40:28;10.30;;;6.20;;
27744;SDS011;61387;48.112;8.616;2024-03-02T08:42:54;10.23;;;6.40;;
27744;SDS011;61387;48.112;8.616;2024-03-02T08:45:20;12.07;;;6.20;;
27744;SDS011;61387;48.112;8.616;2024-03-02T08:47:46;10.93;;;6.97;;
27744;SDS011;61387;48.112;8.616;2024-03-02T08:50:12;10.50;;;6.03;;
27744;SDS011;61387;48.112;8.616;2024-03-02T08:52:37;9.77;;;5.07;;
27744;SDS011;61387;48.112;8.616;2024-03-02T08:55:04;8.43;;;5.30;;
27744;SDS011;61387;48.112;8.616;2024-03-02T08:57:31;9.63;;;5.57;;
27744;SDS011;61387;48.112;8.616;2024-03-02T08:59:57;9.13;;;5.07;;
27744;SDS011;61387;48.112;8.616;2024-03-02T09:02:22;8.73;;;5.50;;
27744;SDS011;61387;48.112;8.616;2024-03-02T09:04:48;18.20;;;9.30;;
27744;SDS011;61387;48.112;8.616;2024-03-02T09:07:14;9.20;;;4.83;;
27744;SDS011;61387;48.112;8.616;2024-03-02T09:09:40;10.93;;;6.30;;
27744;SDS011;61387;48.112;8.616;2024-03-02T09:12:06;8.67;;;4.80;;
27744;SDS011;61387;48.112;8.616;2024-03-02T09:14:32;8.40;;;4.40;;
27744;SDS011;61387;48.112;8.616;2024-03-02T09:16:58;7.50;;;4.30;;
27744;SDS011;61387;48.112;8.616;2024-03-02T09:19:24;8.87;;;4.97;;
27744;SDS011;61387;48.112;8.616;2024-03-02T09:21:50;7.27;;;4.57;;
27744;SDS011;61387;48.112;8.616;2024-03-02T09:24:16;6.50;;;4.17;;
27744;SDS011;61387;48.112;8.616;2024-03-02T09:26:43;6.73;;;4.00;;
27744;SDS011;61387;48.112;8.616;2024-03-02T09:29:09;7.23;;;4.00;;
27744;SDS011;61387;48.112;8.616;2024-03-02T09:31:39;8.00;;;4.50;;
27744;SDS011;61387;48.112;8.616;2024-03-02T09:34:08;7.53;;;4.13;;
27744;SDS011;61387;48.112;8.616;2024-03-02T09:36:34;7.60;;;4.00;;
27744;SDS011;61387;48.112;8.616;2024-03-02T09:38:59;9.10;;;3.70;;
27744;SDS011;61387;48.112;8.616;2024-03-02T09:41:25;6.50;;;4.10;;
27744;SDS011;61387;48.112;8.616;2024-03-02T09:43:51;6.87;;;4.10;;
27744;SDS011;61387;48.112;8.616;2024-03-02T09:46:17;7.33;;;4.13;;
27744;SDS011;61387;48.112;8.616;2024-03-02T09:48:44;7.73;;;4.10;;
27744;SDS011;61387;48.112;8.616;2024-03-02T09:51:10;7.70;;;4.17;;
27744;SDS011;61387;48.112;8.616;2024-03-02T09:53:36;6.00;;;3.83;;
27744;SDS011;61387;48.112;8.616;2024-03-02T09:56:02;7.57;;;5.10;;
27744;SDS011;61387;48.112;8.616;2024-03-02T09:58:29;6.53;;;4.23;;
27744;SDS011;61387;48.112;8.616;2024-03-02T10:00:56;6.60;;;3.67;;
27744;SDS011;61387;48.112;8.616;2024-03-02T10:03:22;10.87;;;6.03;;
27744;SDS011;61387;48.112;8.616;2024-03-02T10:05:51;10.70;;;4.67;;
27744;SDS011;61387;48.112;8.616;2024-03-02T10:08:17;6.33;;;4.10;;
27744;SDS011;61387;48.112;8.616;2024-03-02T10:10:43;6.87;;;3.40;;
27744;SDS011;61387;48.112;8.616;2024-03-02T10:13:09;7.12;;;3.75;;
27744;SDS011;61387;48.112;8.616;2024-03-02T10:15:36;6.63;;;4.27;;
27744;SDS011;61387;48.112;8.616;2024-03-02T10:18:12;7.67;;;4.07;;
27744;SDS011;61387;48.112;8.616;2024-03-02T10:20:39;6.50;;;4.67;;
27744;SDS011;61387;48.112;8.616;2024-03-02T10:25:37;6.47;;;3.60;;
27744;SDS011;61387;48.112;8.616;2024-03-02T10:28:05;6.67;;;3.70;;
27744;SDS011;61387;48.112;8.616;2024-03-02T10:30:31;4.97;;;3.20;;
27744;SDS011;61387;48.112;8.616;2024-03-02T10:32:57;6.60;;;3.77;;
27744;SDS011;61387;48.112;8.616;2024-03-02T10:35:23;6.27;;;3.33;;
27744;SDS011;61387;48.112;8.616;2024-03-02T10:37:50;6.43;;;3.30;;
27744;SDS011;61387;48.112;8.616;2024-03-02T10:40:17;5.87;;;3.70;;
27744;SDS011;61387;48.112;8.616;2024-03-02T10:42:43;5.70;;;3.53;;
27744;SDS011;61387;48.112;8.616;2024-03-02T10:45:10;5.77;;;3.03;;
27744;SDS011;61387;48.112;8.616;2024-03-02T10:47:37;5.73;;;3.10;;
27744;SDS011;61387;48.112;8.616;2024-03-02T10:50:06;6.77;;;3.40;;
27744;SDS011;61387;48.112;8.616;2024-03-02T10:52:34;4.83;;;3.20;;
27744;SDS011;61387;48.112;8.616;2024-03-02T10:55:00;4.97;;;3.40;;
27744;SDS011;61387;48.112;8.616;2024-03-02T10:57:26;4.80;;;2.90;;
27744;SDS011;61387;48.112;8.616;2024-03-02T10:59:56;5.50;;;2.83;;
27744;SDS011;61387;48.112;8.616;2024-03-02T11:02:22;3.40;;;2.40;;
27744;SDS011;61387;48.112;8.616;2024-03-02T11:04:50;4.57;;;2.50;;
27744;SDS011;61387;48.112;8.616;2024-03-02T11:07:20;1.67;;;1.30;;
27744;SDS011;61387;48.112;8.616;2024-03-02T11:09:54;2.83;;;1.63;;
27744;SDS011;61387;48.112;8.616;2024-03-02T11:12:23;2.30;;;1.87;;
27744;SDS011;61387;48.112;8.616;2024-03-02T11:14:49;1.73;;;1.20;;
27744;SDS011;61387;48.112;8.616;2024-03-02T11:17:17;2.27;;;1.10;;
27744;SDS011;61387;48.112;8.616;2024-03-02T11:19:43;4.00;;;1.43;;
27744;SDS011;61387;48.112;8.616;2024-03-02T11:22:11;2.73;;;1.60;;
27744;SDS011;61387;48.112;8.616;2024-03-02T11:24:38;3.43;;;1.57;;
27744;SDS011;61387;48.112;8.616;2024-03-02T11:27:04;2.63;;;1.37;;
27744;SDS011;61387;48.112;8.616;2024-03-02T11:32:06;2.63;;;1.00;;
27744;SDS011;61387;48.112;8.616;2024-03-02T11:34:49;2.87;;;1.23;;
27744;SDS011;61387;48.112;8.616;2024-03-02T11:37:19;3.13;;;1.30;;
27744;SDS011;61387;48.112;8.616;2024-03-02T11:39:50;2.37;;;1.47;;
27744;SDS011;61387;48.112;8.616;2024-03-02T11:42:16;2.90;;;1.47;;
27744;SDS011;61387;48.112;8.616;2024-03-02T11:44:43;2.50;;;1.53;;
27744;SDS011;61387;48.112;8.616;2024-03-02T11:47:11;2.63;;;1.57;;
27744;SDS011;61387;48.112;8.616;2024-03-02T11:49:40;2.83;;;1.47;;
27744;SDS011;61387;48.112;8.616;2024-03-02T11:52:08;3.23;;;1.37;;
27744;SDS011;61387;48.112;8.616;2024-03-02T11:54:36;3.17;;;1.83;;
27744;SDS011;61387;48.112;8.616;2024-03-02T11:57:06;1.97;;;1.30;;
27744;SDS011;61387;48.112;8.616;2024-03-02T11:59:32;3.63;;;1.73;;
27744;SDS011;61387;48.112;8.616;2024-03-02T12:01:58;3.65;;;2.00;;
27744;SDS011;61387;48.112;8.616;2024-03-02T12:04:25;4.70;;;1.70;;
27744;SDS011;61387;48.112;8.616;2024-03-02T12:06:55;2.20;;;1.53;;
27744;SDS011;61387;48.112;8.616;2024-03-02T12:09:24;2.93;;;2.00;;
27744;SDS011;61387;48.112;8.616;2024-03-02T12:12:00;3.03;;;1.80;;
27744;SDS011;61387;48.112;8.616;2024-03-02T12:14:36;2.97;;;1.80;;
27744;SDS011;61387;48.112;8.616;2024-03-02T12:17:03;2.70;;;1.80;;
27744;SDS011;61387;48.112;8.616;2024-03-02T12:19:29;2.13;;;1.67;;
27744;SDS011;61387;48.112;8.616;2024-03-02T12:21:56;3.37;;;1.67;;
27744;SDS011;61387;48.112;8.616;2024-03-02T12:24:22;2.60;;;1.80;;
27744;SDS011;61387;48.112;8.616;2024-03-02T12:26:49;2.17;;;1.50;;
27744;SDS011;61387;48.112;8.616;2024-03-02T12:29:21;2.97;;;1.80;;
27744;SDS011;61387;48.112;8.616;2024-03-02T12:31:47;3.30;;;1.83;;
27744;SDS011;61387;48.112;8.616;2024-03-02T12:34:14;2.37;;;1.70;;
27744;SDS011;61387;48.112;8.616;2024-03-02T12:36:41;3.13;;;1.60;;
27744;SDS011;61387;48.112;8.616;2024-03-02T12:39:10;2.27;;;1.47;;
27744;SDS011;61387;48.112;8.616;2024-03-02T12:41:36;6.07;;;2.97;;
27744;SDS011;61387;48.112;8.616;2024-03-02T12:44:05;3.00;;;1.90;;
27744;SDS011;61387;48.112;8.616;2024-03-02T12:46:31;2.97;;;1.80;;
27744;SDS011;61387;48.112;8.616;2024-03-02T12:48:57;4.80;;;1.83;;
27744;SDS011;61387;48.112;8.616;2024-03-02T12:51:27;2.87;;;1.80;;
27744;SDS011;61387;48.112;8.616;2024-03-02T12:53:54;1.90;;;1.20;;
27744;SDS011;61387;48.112;8.616;2024-03-02T12:56:20;3.37;;;1.60;;
27744;SDS011;61387;48.112;8.616;2024-03-02T12:58:46;3.10;;;1.70;;
27744;SDS011;61387;48.112;8.616;2024-03-02T13:01:14;2.40;;;1.67;;
27744;SDS011;61387;48.112;8.616;2024-03-02T13:03:43;3.93;;;2.00;;
27744;SDS011;61387;48.112;8.616;2024-03-02T13:06:09;1.90;;;1.60;;
27744;SDS011;61387;48.112;8.616;2024-03-02T13:08:35;4.83;;;1.90;;
27744;SDS011;61387;48.112;8.616;2024-03-02T13:11:01;4.33;;;1.70;;
27744;SDS011;61387;48.112;8.616;2024-03-02T13:13:27;3.43;;;2.63;;
27744;SDS011;61387;48.112;8.616;2024-03-02T13:15:55;4.73;;;3.00;;
27744;SDS011;61387;48.112;8.616;2024-03-02T13:18:22;3.50;;;2.00;;
27744;SDS011;61387;48.112;8.616;2024-03-02T13:20:47;4.27;;;2.30;;
27744;SDS011;61387;48.112;8.616;2024-03-02T13:23:13;5.47;;;3.73;;
27744;SDS011;61387;48.112;8.616;2024-03-02T13:25:39;2.70;;;1.80;;
27744;SDS011;61387;48.112;8.616;2024-03-02T13:28:05;4.17;;;1.90;;
27744;SDS011;61387;48.112;8.616;2024-03-02T13:30:32;2.37;;;1.70;;
27744;SDS011;61387;48.112;8.616;2024-03-02T13:32:58;3.27;;;1.83;;
27744;SDS011;61387;48.112;8.616;2024-03-02T13:35:23;2.80;;;1.80;;
27744;SDS011;61387;48.112;8.616;2024-03-02T13:37:49;2.97;;;2.00;;
27744;SDS011;61387;48.112;8.616;2024-03-02T13:40:15;2.40;;;1.63;;
27744;SDS011;61387;48.112;8.616;2024-03-02T13:42:44;2.07;;;1.60;;
27744;SDS011;61387;48.112;8.616;2024-03-02T13:45:11;6.70;;;4.07;;
27744;SDS011;61387;48.112;8.616;2024-03-02T13:47:37;6.77;;;5.37;;
27744;SDS011;61387;48.112;8.616;2024-03-02T13:50:02;5.63;;;3.93;;
27744;SDS011;61387;48.112;8.616;2024-03-02T13:52:30;7.63;;;4.30;;
27744;SDS011;61387;48.112;8.616;2024-03-02T13:54:56;2.13;;;1.30;;
27744;SDS011;61387;48.112;8.616;2024-03-02T13:57:21;5.30;;;2.10;;
27744;SDS011;61387;48.112;8.616;2024-03-02T13:59:47;2.97;;;1.73;;
27744;SDS011;61387;48.112;8.616;2024-03-02T14:02:13;2.70;;;2.43;;
27744;SDS011;61387;48.112;8.616;2024-03-02T14:04:38;2.83;;;2.20;;
27744;SDS011;61387;48.112;8.616;2024-03-02T14:07:04;4.77;;;3.27;;
27744;SDS011;61387;48.112;8.616;2024-03-02T14:09:33;3.37;;;2.23;;
27744;SDS011;61387;48.112;8.616;2024-03-02T14:11:59;3.00;;;2.10;;
27744;SDS011;61387;48.112;8.616;2024-03-02T14:14:26;7.77;;;4.40;;
27744;SDS011;61387;48.112;8.616;2024-03-02T14:16:52;2.63;;;1.80;;
27744;SDS011;61387;48.112;8.616;2024-03-02T14:19:20;16.83;;;12.10;;
27744;SDS011;61387;48.112;8.616;2024-03-02T14:21:46;147.10;;;100.47;;
27744;SDS011;61387;48.112;8.616;2024-03-02T14:24:12;93.40;;;63.47;;
27744;SDS011;61387;48.112;8.616;2024-03-02T14:26:38;34.97;;;26.53;;
27744;SDS011;61387;48.112;8.616;2024-03-02T14:29:04;3.97;;;3.17;;
27744;SDS011;61387;48.112;8.616;2024-03-02T14:31:30;7.53;;;6.40;;
27744;SDS011;61387;48.112;8.616;2024-03-02T14:33:56;7.67;;;6.13;;
27744;SDS011;61387;48.112;8.616;2024-03-02T14:36:22;4.57;;;3.87;;
27744;SDS011;61387;48.112;8.616;2024-03-02T14:38:48;3.43;;;2.30;;
27744;SDS011;61387;48.112;8.616;2024-03-02T14:41:14;1.50;;;1.40;;